Huvudsida
METAR-TAF:

METAR-TAF

Flygplatser :

Palermo, Italien

latitud: 38-11N, longitud: 013-06E, höjd: 21 m

Aktuellt väderrapport

Denna rapport gjordes för 34 minuter sedan, klockan 17:50 UTC
Vind 3 kt varierande vindriktning
Temperatur 13°C
Fuktighet 82%
Tryck 1019 hPa
Sikt 10 km eller mer
Inga moln under 1 500 m eller inga cumulonimbus

METAR: LICJ 081750Z VRB03KT CAVOK 13/10 Q1019

Tid: 19:24 (18:24 UTC)

Väderprognos

Denna rapport gjordes för 1 timme och 24 minuter sedan, klockan 17:00 UTC
Prognos gäller från 08 kl. 18 UTC till 09 kl. 18 UTC
Vind 5 kt varierande vindriktning
Sikt 10 km eller mer
Spridda moln på en höjd av 3000 ft
Blir
från 08 kl. 19 UTC till 08 kl. 21 UTC
Vind 10 kt från väst/sydväst
Temporärt
från 09 kl. 02 UTC till 09 kl. 06 UTC
regnskurar
Blir
från 09 kl. 10 UTC till 09 kl. 12 UTC
Vind 12 kt från nordväst

TAF: LICJ 081700Z 0818/0918 VRB05KT 9999 SCT030 BECMG 0819/0821 25010KT TEMPO 0902/0906 SHRA BECMG 0910/0912 31012KT

Aktuella väderrapporter och prognoser från 4000 flygplatser (METAR- och TAF-rapporter).

De tillgängliga stationerna syns som gula och röda prickar på kartan.

För musen över prickarna för att se namnen på stationerna.

Klicka sedan för att få väderrapporter och prognoser.

För att ändra kartan: Klicka på de gröna knapparna med ett svart kors på för att zooma in; den gröna knappen med ett streck på för att zooma ut; eller på de gröna pilarna för angränsande kartor.


METAR-TAF: